sensor_id;sensor_type;location;lat;lon;timestamp;temperature;humidity
27559;DHT22;15002;52.028;5.670;2023-03-14T00:01:23;14.90;99.90
27559;DHT22;15002;52.028;5.670;2023-03-14T00:03:50;14.80;99.90
27559;DHT22;15002;52.028;5.670;2023-03-14T00:06:16;14.90;99.90
27559;DHT22;15002;52.028;5.670;2023-03-14T00:08:43;15.00;99.90
27559;DHT22;15002;52.028;5.670;2023-03-14T00:11:11;15.10;99.90
27559;DHT22;15002;52.028;5.670;2023-03-14T00:13:37;14.90;99.90
27559;DHT22;15002;52.028;5.670;2023-03-14T00:16:10;14.90;99.90
27559;DHT22;15002;52.028;5.670;2023-03-14T00:18:36;14.80;99.90
27559;DHT22;15002;52.028;5.670;2023-03-14T00:21:03;14.60;99.90
27559;DHT22;15002;52.028;5.670;2023-03-14T00:23:30;14.70;99.90
27559;DHT22;15002;52.028;5.670;2023-03-14T00:26:06;14.80;99.90
27559;DHT22;15002;52.028;5.670;2023-03-14T00:28:32;14.90;99.90
27559;DHT22;15002;52.028;5.670;2023-03-14T00:30:58;14.80;99.90
27559;DHT22;15002;52.028;5.670;2023-03-14T00:33:24;14.90;99.90
27559;DHT22;15002;52.028;5.670;2023-03-14T00:36:04;14.60;99.90
27559;DHT22;15002;52.028;5.670;2023-03-14T00:38:31;14.80;99.90
27559;DHT22;15002;52.028;5.670;2023-03-14T00:40:57;14.70;99.90
27559;DHT22;15002;52.028;5.670;2023-03-14T00:43:22;14.70;99.90
27559;DHT22;15002;52.028;5.670;2023-03-14T00:45:49;14.70;99.90
27559;DHT22;15002;52.028;5.670;2023-03-14T00:48:15;14.70;99.90
27559;DHT22;15002;52.028;5.670;2023-03-14T00:50:41;14.60;99.90
27559;DHT22;15002;52.028;5.670;2023-03-14T00:53:07;14.50;99.90
27559;DHT22;15002;52.028;5.670;2023-03-14T00:55:37;14.40;99.90
27559;DHT22;15002;52.028;5.670;2023-03-14T00:58:02;14.60;99.90
27559;DHT22;15002;52.028;5.670;2023-03-14T01:00:28;14.40;99.90
27559;DHT22;15002;52.028;5.670;2023-03-14T01:02:54;14.20;99.90
27559;DHT22;15002;52.028;5.670;2023-03-14T01:05:21;14.00;99.90
27559;DHT22;15002;52.028;5.670;2023-03-14T01:07:47;13.70;99.90
27559;DHT22;15002;52.028;5.670;2023-03-14T01:10:12;13.80;99.90
27559;DHT22;15002;52.028;5.670;2023-03-14T01:12:38;13.60;99.90
27559;DHT22;15002;52.028;5.670;2023-03-14T01:15:04;13.50;99.90
27559;DHT22;15002;52.028;5.670;2023-03-14T01:17:30;13.50;99.90
27559;DHT22;15002;52.028;5.670;2023-03-14T01:19:55;13.50;99.90
27559;DHT22;15002;52.028;5.670;2023-03-14T01:22:21;13.70;99.90
27559;DHT22;15002;52.028;5.670;2023-03-14T01:24:47;13.70;99.90
27559;DHT22;15002;52.028;5.670;2023-03-14T01:27:12;13.50;99.90
27559;DHT22;15002;52.028;5.670;2023-03-14T01:29:38;13.40;99.90
27559;DHT22;15002;52.028;5.670;2023-03-14T01:32:04;13.20;99.90
27559;DHT22;15002;52.028;5.670;2023-03-14T01:34:30;13.10;99.90
27559;DHT22;15002;52.028;5.670;2023-03-14T01:36:55;13.10;99.90
27559;DHT22;15002;52.028;5.670;2023-03-14T01:39:21;13.10;99.90
27559;DHT22;15002;52.028;5.670;2023-03-14T01:41:47;13.20;99.90
27559;DHT22;15002;52.028;5.670;2023-03-14T01:44:12;13.00;99.90
27559;DHT22;15002;52.028;5.670;2023-03-14T01:46:43;12.90;99.90
27559;DHT22;15002;52.028;5.670;2023-03-14T01:49:11;12.80;99.90
27559;DHT22;15002;52.028;5.670;2023-03-14T01:51:45;12.90;99.90
27559;DHT22;15002;52.028;5.670;2023-03-14T01:56:48;12.70;99.90
27559;DHT22;15002;52.028;5.670;2023-03-14T01:59:15;12.60;99.90
27559;DHT22;15002;52.028;5.670;2023-03-14T02:01:43;12.50;99.90
27559;DHT22;15002;52.028;5.670;2023-03-14T02:04:11;12.40;99.90
27559;DHT22;15002;52.028;5.670;2023-03-14T02:07:01;12.40;99.90
27559;DHT22;15002;52.028;5.670;2023-03-14T02:09:28;12.50;99.90
27559;DHT22;15002;52.028;5.670;2023-03-14T02:11:56;12.30;99.90
27559;DHT22;15002;52.028;5.670;2023-03-14T02:14:27;12.30;99.90
27559;DHT22;15002;52.028;5.670;2023-03-14T02:16:54;12.40;99.90
27559;DHT22;15002;52.028;5.670;2023-03-14T02:19:35;12.40;99.90
27559;DHT22;15002;52.028;5.670;2023-03-14T02:22:08;12.40;99.90
27559;DHT22;15002;52.028;5.670;2023-03-14T02:24:41;12.50;99.90
27559;DHT22;15002;52.028;5.670;2023-03-14T02:27:16;12.50;99.90
27559;DHT22;15002;52.028;5.670;2023-03-14T02:29:52;12.50;99.90
27559;DHT22;15002;52.028;5.670;2023-03-14T02:32:20;12.50;99.90
27559;DHT22;15002;52.028;5.670;2023-03-14T02:34:49;12.60;99.90
27559;DHT22;15002;52.028;5.670;2023-03-14T02:37:18;12.50;99.90
27559;DHT22;15002;52.028;5.670;2023-03-14T02:39:46;12.50;99.90
27559;DHT22;15002;52.028;5.670;2023-03-14T02:42:14;12.50;99.90
27559;DHT22;15002;52.028;5.670;2023-03-14T02:47:37;12.40;99.90
27559;DHT22;15002;52.028;5.670;2023-03-14T02:50:12;12.40;99.90
27559;DHT22;15002;52.028;5.670;2023-03-14T02:52:38;12.40;99.90
27559;DHT22;15002;52.028;5.670;2023-03-14T02:55:04;12.30;99.90
27559;DHT22;15002;52.028;5.670;2023-03-14T02:57:30;12.40;99.90
27559;DHT22;15002;52.028;5.670;2023-03-14T02:59:59;12.50;99.90
27559;DHT22;15002;52.028;5.670;2023-03-14T03:02:26;12.70;99.90
27559;DHT22;15002;52.028;5.670;2023-03-14T03:04:52;12.60;99.90
27559;DHT22;15002;52.028;5.670;2023-03-14T03:07:18;12.60;99.90
27559;DHT22;15002;52.028;5.670;2023-03-14T03:09:44;12.60;99.90
27559;DHT22;15002;52.028;5.670;2023-03-14T03:12:10;12.50;99.90
27559;DHT22;15002;52.028;5.670;2023-03-14T03:14:36;12.50;99.90
27559;DHT22;15002;52.028;5.670;2023-03-14T03:17:04;12.60;99.90
27559;DHT22;15002;52.028;5.670;2023-03-14T03:19:31;12.50;99.90
27559;DHT22;15002;52.028;5.670;2023-03-14T03:21:56;12.60;99.90
27559;DHT22;15002;52.028;5.670;2023-03-14T03:24:23;12.70;99.90
27559;DHT22;15002;52.028;5.670;2023-03-14T03:26:49;12.70;99.90
27559;DHT22;15002;52.028;5.670;2023-03-14T03:29:15;12.70;99.90
27559;DHT22;15002;52.028;5.670;2023-03-14T03:31:41;12.70;99.90
27559;DHT22;15002;52.028;5.670;2023-03-14T03:34:06;12.70;99.90
27559;DHT22;15002;52.028;5.670;2023-03-14T03:36:32;12.90;99.90
27559;DHT22;15002;52.028;5.670;2023-03-14T03:38:58;12.80;99.90
27559;DHT22;15002;52.028;5.670;2023-03-14T03:41:24;12.80;99.90
27559;DHT22;15002;52.028;5.670;2023-03-14T03:43:50;12.80;99.90
27559;DHT22;15002;52.028;5.670;2023-03-14T03:46:15;12.80;99.90
27559;DHT22;15002;52.028;5.670;2023-03-14T03:48:41;12.60;99.90
27559;DHT22;15002;52.028;5.670;2023-03-14T03:51:07;12.80;99.90
27559;DHT22;15002;52.028;5.670;2023-03-14T03:53:32;12.80;99.90
27559;DHT22;15002;52.028;5.670;2023-03-14T03:55:58;12.70;99.90
27559;DHT22;15002;52.028;5.670;2023-03-14T03:58:23;12.70;99.90
27559;DHT22;15002;52.028;5.670;2023-03-14T04:00:49;12.80;99.90
27559;DHT22;15002;52.028;5.670;2023-03-14T04:03:15;12.80;99.90
27559;DHT22;15002;52.028;5.670;2023-03-14T04:05:40;12.80;99.90
27559;DHT22;15002;52.028;5.670;2023-03-14T04:08:06;12.80;99.90
27559;DHT22;15002;52.028;5.670;2023-03-14T04:10:35;12.80;99.90
27559;DHT22;15002;52.028;5.670;2023-03-14T04:13:01;12.70;99.90
27559;DHT22;15002;52.028;5.670;2023-03-14T04:15:26;12.70;99.90
27559;DHT22;15002;52.028;5.670;2023-03-14T04:17:56;12.70;99.90
27559;DHT22;15002;52.028;5.670;2023-03-14T04:20:22;12.70;99.90
27559;DHT22;15002;52.028;5.670;2023-03-14T04:22:47;12.70;99.90
27559;DHT22;15002;52.028;5.670;2023-03-14T04:25:13;12.80;99.90
27559;DHT22;15002;52.028;5.670;2023-03-14T04:27:39;12.80;99.90
27559;DHT22;15002;52.028;5.670;2023-03-14T04:30:05;12.90;99.90
27559;DHT22;15002;52.028;5.670;2023-03-14T04:32:30;12.80;99.90
27559;DHT22;15002;52.028;5.670;2023-03-14T04:34:56;12.90;99.90
27559;DHT22;15002;52.028;5.670;2023-03-14T04:37:21;12.60;99.90
27559;DHT22;15002;52.028;5.670;2023-03-14T04:39:47;12.50;99.90
27559;DHT22;15002;52.028;5.670;2023-03-14T04:42:13;12.50;99.90
27559;DHT22;15002;52.028;5.670;2023-03-14T04:44:38;12.60;99.90
27559;DHT22;15002;52.028;5.670;2023-03-14T04:47:04;12.70;99.90
27559;DHT22;15002;52.028;5.670;2023-03-14T04:49:29;12.80;99.90
27559;DHT22;15002;52.028;5.670;2023-03-14T04:51:55;12.90;99.90
27559;DHT22;15002;52.028;5.670;2023-03-14T04:54:21;12.80;99.90
27559;DHT22;15002;52.028;5.670;2023-03-14T04:56:46;12.80;99.90
27559;DHT22;15002;52.028;5.670;2023-03-14T04:59:12;12.70;99.90
27559;DHT22;15002;52.028;5.670;2023-03-14T05:01:37;12.70;99.90
27559;DHT22;15002;52.028;5.670;2023-03-14T05:04:03;12.70;99.90
27559;DHT22;15002;52.028;5.670;2023-03-14T05:06:29;12.70;99.90
27559;DHT22;15002;52.028;5.670;2023-03-14T05:08:54;12.60;99.90
27559;DHT22;15002;52.028;5.670;2023-03-14T05:11:20;12.70;99.90
27559;DHT22;15002;52.028;5.670;2023-03-14T05:13:46;12.70;99.90
27559;DHT22;15002;52.028;5.670;2023-03-14T05:16:11;12.60;99.90
27559;DHT22;15002;52.028;5.670;2023-03-14T05:18:37;12.60;99.90
27559;DHT22;15002;52.028;5.670;2023-03-14T05:21:04;12.50;99.90
27559;DHT22;15002;52.028;5.670;2023-03-14T05:23:30;12.50;99.90
27559;DHT22;15002;52.028;5.670;2023-03-14T05:25:56;12.60;99.90
27559;DHT22;15002;52.028;5.670;2023-03-14T05:28:21;12.60;99.90
27559;DHT22;15002;52.028;5.670;2023-03-14T05:30:47;12.70;99.90
27559;DHT22;15002;52.028;5.670;2023-03-14T05:33:13;12.60;99.90
27559;DHT22;15002;52.028;5.670;2023-03-14T05:35:38;12.60;99.90
27559;DHT22;15002;52.028;5.670;2023-03-14T05:38:04;12.60;99.90
27559;DHT22;15002;52.028;5.670;2023-03-14T05:40:30;12.60;99.90
27559;DHT22;15002;52.028;5.670;2023-03-14T05:42:55;12.40;99.90
27559;DHT22;15002;52.028;5.670;2023-03-14T05:45:21;12.50;99.90
27559;DHT22;15002;52.028;5.670;2023-03-14T05:47:47;12.60;99.90
27559;DHT22;15002;52.028;5.670;2023-03-14T05:50:12;12.50;99.90
27559;DHT22;15002;52.028;5.670;2023-03-14T05:52:38;12.50;99.90
27559;DHT22;15002;52.028;5.670;2023-03-14T05:55:04;12.50;99.90
27559;DHT22;15002;52.028;5.670;2023-03-14T05:57:30;12.60;99.90
27559;DHT22;15002;52.028;5.670;2023-03-14T05:59:55;12.60;99.90
27559;DHT22;15002;52.028;5.670;2023-03-14T06:02:21;12.70;99.90
27559;DHT22;15002;52.028;5.670;2023-03-14T06:04:47;12.70;99.90
27559;DHT22;15002;52.028;5.670;2023-03-14T06:07:13;12.70;99.90
27559;DHT22;15002;52.028;5.670;2023-03-14T06:09:38;12.50;99.90
27559;DHT22;15002;52.028;5.670;2023-03-14T06:12:05;12.60;99.90
27559;DHT22;15002;52.028;5.670;2023-03-14T06:14:31;12.80;99.90
27559;DHT22;15002;52.028;5.670;2023-03-14T06:16:57;12.80;99.90
27559;DHT22;15002;52.028;5.670;2023-03-14T06:19:25;12.90;99.90
27559;DHT22;15002;52.028;5.670;2023-03-14T06:21:51;12.80;99.90
27559;DHT22;15002;52.028;5.670;2023-03-14T06:24:17;12.60;99.90
27559;DHT22;15002;52.028;5.670;2023-03-14T06:26:43;12.60;99.90
27559;DHT22;15002;52.028;5.670;2023-03-14T06:29:09;12.50;99.90
27559;DHT22;15002;52.028;5.670;2023-03-14T06:31:34;12.50;99.90
27559;DHT22;15002;52.028;5.670;2023-03-14T06:34:00;12.60;99.90
27559;DHT22;15002;52.028;5.670;2023-03-14T06:36:26;12.60;99.90
27559;DHT22;15002;52.028;5.670;2023-03-14T06:38:52;12.60;99.90
27559;DHT22;15002;52.028;5.670;2023-03-14T06:41:17;12.60;99.90
27559;DHT22;15002;52.028;5.670;2023-03-14T06:43:43;12.60;99.90
27559;DHT22;15002;52.028;5.670;2023-03-14T06:46:09;12.70;99.90
27559;DHT22;15002;52.028;5.670;2023-03-14T06:48:34;12.80;99.90
27559;DHT22;15002;52.028;5.670;2023-03-14T06:51:00;12.60;99.90
27559;DHT22;15002;52.028;5.670;2023-03-14T06:53:26;12.60;99.90
27559;DHT22;15002;52.028;5.670;2023-03-14T06:55:51;12.60;99.90
27559;DHT22;15002;52.028;5.670;2023-03-14T06:58:17;12.70;99.90
27559;DHT22;15002;52.028;5.670;2023-03-14T07:00:43;12.60;99.90
27559;DHT22;15002;52.028;5.670;2023-03-14T07:03:10;12.80;99.90
27559;DHT22;15002;52.028;5.670;2023-03-14T07:05:35;12.60;99.90
27559;DHT22;15002;52.028;5.670;2023-03-14T07:08:01;12.50;99.90
27559;DHT22;15002;52.028;5.670;2023-03-14T07:10:27;12.50;99.90
27559;DHT22;15002;52.028;5.670;2023-03-14T07:12:52;12.40;99.90
27559;DHT22;15002;52.028;5.670;2023-03-14T07:15:19;12.50;99.90
27559;DHT22;15002;52.028;5.670;2023-03-14T07:17:45;12.50;99.90
27559;DHT22;15002;52.028;5.670;2023-03-14T07:20:13;12.50;99.90
27559;DHT22;15002;52.028;5.670;2023-03-14T07:22:39;12.50;99.90
27559;DHT22;15002;52.028;5.670;2023-03-14T07:25:05;12.50;99.90
27559;DHT22;15002;52.028;5.670;2023-03-14T07:27:31;12.50;99.90
27559;DHT22;15002;52.028;5.670;2023-03-14T07:29:57;12.40;99.90
27559;DHT22;15002;52.028;5.670;2023-03-14T07:32:22;12.40;99.90
27559;DHT22;15002;52.028;5.670;2023-03-14T07:34:48;12.40;99.90
27559;DHT22;15002;52.028;5.670;2023-03-14T07:37:14;12.30;99.90
27559;DHT22;15002;52.028;5.670;2023-03-14T07:39:39;12.10;99.90
27559;DHT22;15002;52.028;5.670;2023-03-14T07:42:05;12.00;99.90
27559;DHT22;15002;52.028;5.670;2023-03-14T07:44:31;11.70;99.90
27559;DHT22;15002;52.028;5.670;2023-03-14T07:46:57;11.80;99.90
27559;DHT22;15002;52.028;5.670;2023-03-14T07:49:22;11.80;99.90
27559;DHT22;15002;52.028;5.670;2023-03-14T07:51:48;11.70;99.90
27559;DHT22;15002;52.028;5.670;2023-03-14T07:54:14;11.80;99.90
27559;DHT22;15002;52.028;5.670;2023-03-14T07:56:40;11.80;99.90
27559;DHT22;15002;52.028;5.670;2023-03-14T07:59:06;11.70;99.90
27559;DHT22;15002;52.028;5.670;2023-03-14T08:01:32;11.80;99.90
27559;DHT22;15002;52.028;5.670;2023-03-14T08:03:58;11.80;99.90
27559;DHT22;15002;52.028;5.670;2023-03-14T08:06:24;11.70;99.90
27559;DHT22;15002;52.028;5.670;2023-03-14T08:08:50;11.70;99.90
27559;DHT22;15002;52.028;5.670;2023-03-14T08:11:15;11.50;99.90
27559;DHT22;15002;52.028;5.670;2023-03-14T08:13:41;11.50;99.90
27559;DHT22;15002;52.028;5.670;2023-03-14T08:16:07;11.30;99.90
27559;DHT22;15002;52.028;5.670;2023-03-14T08:18:33;11.30;99.90
27559;DHT22;15002;52.028;5.670;2023-03-14T08:20:58;11.30;99.90
27559;DHT22;15002;52.028;5.670;2023-03-14T08:23:24;11.50;99.90
27559;DHT22;15002;52.028;5.670;2023-03-14T08:25:50;11.40;99.90
27559;DHT22;15002;52.028;5.670;2023-03-14T08:28:17;11.20;99.90
27559;DHT22;15002;52.028;5.670;2023-03-14T08:30:42;11.00;99.90
27559;DHT22;15002;52.028;5.670;2023-03-14T08:33:08;10.60;99.90
27559;DHT22;15002;52.028;5.670;2023-03-14T08:35:34;10.30;99.90
27559;DHT22;15002;52.028;5.670;2023-03-14T08:37:59;10.20;99.90
27559;DHT22;15002;52.028;5.670;2023-03-14T08:40:25;10.10;99.90
27559;DHT22;15002;52.028;5.670;2023-03-14T08:42:51;10.00;99.90
27559;DHT22;15002;52.028;5.670;2023-03-14T08:45:17;9.90;99.90
27559;DHT22;15002;52.028;5.670;2023-03-14T08:47:44;9.90;99.90
27559;DHT22;15002;52.028;5.670;2023-03-14T08:50:10;9.90;99.90
27559;DHT22;15002;52.028;5.670;2023-03-14T08:52:36;9.90;99.90
27559;DHT22;15002;52.028;5.670;2023-03-14T08:55:03;9.90;99.90
27559;DHT22;15002;52.028;5.670;2023-03-14T08:57:29;9.80;99.90
27559;DHT22;15002;52.028;5.670;2023-03-14T08:59:56;9.80;99.90
27559;DHT22;15002;52.028;5.670;2023-03-14T09:02:23;9.70;99.90
27559;DHT22;15002;52.028;5.670;2023-03-14T09:04:50;9.80;99.90
27559;DHT22;15002;52.028;5.670;2023-03-14T09:07:16;9.60;99.90
27559;DHT22;15002;52.028;5.670;2023-03-14T09:09:42;9.70;99.90
27559;DHT22;15002;52.028;5.670;2023-03-14T09:12:07;9.60;99.90
27559;DHT22;15002;52.028;5.670;2023-03-14T09:14:33;9.80;99.90
27559;DHT22;15002;52.028;5.670;2023-03-14T09:16:59;9.90;99.90
27559;DHT22;15002;52.028;5.670;2023-03-14T09:19:24;9.70;99.90
27559;DHT22;15002;52.028;5.670;2023-03-14T09:21:50;9.90;99.90
27559;DHT22;15002;52.028;5.670;2023-03-14T09:24:16;10.00;99.90
27559;DHT22;15002;52.028;5.670;2023-03-14T09:26:42;10.00;99.90
27559;DHT22;15002;52.028;5.670;2023-03-14T09:29:08;10.00;99.90
27559;DHT22;15002;52.028;5.670;2023-03-14T09:31:33;10.10;99.90
27559;DHT22;15002;52.028;5.670;2023-03-14T09:33:59;9.90;99.90
27559;DHT22;15002;52.028;5.670;2023-03-14T09:36:25;9.90;99.90
27559;DHT22;15002;52.028;5.670;2023-03-14T09:38:50;10.10;99.90
27559;DHT22;15002;52.028;5.670;2023-03-14T09:41:33;10.30;99.90
27559;DHT22;15002;52.028;5.670;2023-03-14T09:44:08;10.10;99.90
27559;DHT22;15002;52.028;5.670;2023-03-14T09:46:37;10.00;99.90
27559;DHT22;15002;52.028;5.670;2023-03-14T09:49:10;10.40;99.90
27559;DHT22;15002;52.028;5.670;2023-03-14T09:51:37;10.20;99.90
27559;DHT22;15002;52.028;5.670;2023-03-14T09:54:05;10.30;99.90
27559;DHT22;15002;52.028;5.670;2023-03-14T09:56:32;10.40;99.90
27559;DHT22;15002;52.028;5.670;2023-03-14T09:59:01;10.60;99.90
27559;DHT22;15002;52.028;5.670;2023-03-14T10:01:30;10.50;99.90
27559;DHT22;15002;52.028;5.670;2023-03-14T10:04:00;10.70;99.90
27559;DHT22;15002;52.028;5.670;2023-03-14T10:06:29;10.30;99.90
27559;DHT22;15002;52.028;5.670;2023-03-14T10:08:56;10.30;99.90
27559;DHT22;15002;52.028;5.670;2023-03-14T10:11:25;10.50;99.90
27559;DHT22;15002;52.028;5.670;2023-03-14T10:14:10;10.40;99.90
27559;DHT22;15002;52.028;5.670;2023-03-14T10:16:46;10.40;99.90
27559;DHT22;15002;52.028;5.670;2023-03-14T10:19:16;10.20;99.90
27559;DHT22;15002;52.028;5.670;2023-03-14T10:21:43;10.30;99.90
27559;DHT22;15002;52.028;5.670;2023-03-14T10:24:21;10.20;99.90
27559;DHT22;15002;52.028;5.670;2023-03-14T10:26:55;10.20;99.90
27559;DHT22;15002;52.028;5.670;2023-03-14T10:29:21;10.10;99.90
27559;DHT22;15002;52.028;5.670;2023-03-14T10:31:57;10.10;99.90
27559;DHT22;15002;52.028;5.670;2023-03-14T10:34:32;10.50;99.90
27559;DHT22;15002;52.028;5.670;2023-03-14T10:37:07;10.50;99.90
27559;DHT22;15002;52.028;5.670;2023-03-14T10:44:42;10.10;99.90
27559;DHT22;15002;52.028;5.670;2023-03-14T10:47:19;9.90;99.90
27559;DHT22;15002;52.028;5.670;2023-03-14T10:49:47;9.60;99.90
27559;DHT22;15002;52.028;5.670;2023-03-14T10:54:48;9.60;99.90
27559;DHT22;15002;52.028;5.670;2023-03-14T10:57:14;9.90;99.90
27559;DHT22;15002;52.028;5.670;2023-03-14T10:59:42;10.20;99.90
27559;DHT22;15002;52.028;5.670;2023-03-14T11:07:43;10.50;99.90
27559;DHT22;15002;52.028;5.670;2023-03-14T11:29:41;10.10;99.90
27559;DHT22;15002;52.028;5.670;2023-03-14T11:32:19;9.90;99.90
27559;DHT22;15002;52.028;5.670;2023-03-14T11:37:36;10.20;99.90
27559;DHT22;15002;52.028;5.670;2023-03-14T11:42:44;10.20;99.90
27559;DHT22;15002;52.028;5.670;2023-03-14T11:45:27;10.30;99.90
27559;DHT22;15002;52.028;5.670;2023-03-14T11:48:11;10.10;99.90
27559;DHT22;15002;52.028;5.670;2023-03-14T11:50:41;10.40;99.90
27559;DHT22;15002;52.028;5.670;2023-03-14T11:53:19;10.50;99.90
27559;DHT22;15002;52.028;5.670;2023-03-14T11:55:45;10.70;99.90
27559;DHT22;15002;52.028;5.670;2023-03-14T11:58:19;10.90;99.90
27559;DHT22;15002;52.028;5.670;2023-03-14T12:00:47;11.10;99.90
27559;DHT22;15002;52.028;5.670;2023-03-14T12:03:28;11.10;99.90
27559;DHT22;15002;52.028;5.670;2023-03-14T12:08:57;11.30;99.40
27559;DHT22;15002;52.028;5.670;2023-03-14T12:13:55;11.00;98.80
27559;DHT22;15002;52.028;5.670;2023-03-14T12:18:51;11.00;98.90
27559;DHT22;15002;52.028;5.670;2023-03-14T12:21:18;10.90;98.20
27559;DHT22;15002;52.028;5.670;2023-03-14T12:23:50;11.10;97.50
27559;DHT22;15002;52.028;5.670;2023-03-14T12:26:26;10.80;96.60
27559;DHT22;15002;52.028;5.670;2023-03-14T12:36:51;11.30;94.90
27559;DHT22;15002;52.028;5.670;2023-03-14T12:39:34;11.10;93.70
27559;DHT22;15002;52.028;5.670;2023-03-14T12:45:22;11.10;94.00
27559;DHT22;15002;52.028;5.670;2023-03-14T12:48:08;10.80;94.60
27559;DHT22;15002;52.028;5.670;2023-03-14T12:50:45;10.80;95.50
27559;DHT22;15002;52.028;5.670;2023-03-14T13:01:27;10.90;93.10
27559;DHT22;15002;52.028;5.670;2023-03-14T13:03:57;10.90;92.60
27559;DHT22;15002;52.028;5.670;2023-03-14T13:12:13;11.10;93.00
27559;DHT22;15002;52.028;5.670;2023-03-14T13:14:45;11.20;92.90
27559;DHT22;15002;52.028;5.670;2023-03-14T13:17:15;11.40;92.90
27559;DHT22;15002;52.028;5.670;2023-03-14T13:20:31;11.60;91.90
27559;DHT22;15002;52.028;5.670;2023-03-14T13:22:37;11.60;90.20
27559;DHT22;15002;52.028;5.670;2023-03-14T13:25:07;11.30;90.20
27559;DHT22;15002;52.028;5.670;2023-03-14T13:27:35;11.10;90.60
27559;DHT22;15002;52.028;5.670;2023-03-14T13:30:22;11.00;89.50
27559;DHT22;15002;52.028;5.670;2023-03-14T13:32:50;11.10;90.80
27559;DHT22;15002;52.028;5.670;2023-03-14T13:35:22;11.20;90.00
27559;DHT22;15002;52.028;5.670;2023-03-14T13:37:53;11.30;90.60
27559;DHT22;15002;52.028;5.670;2023-03-14T13:40:25;11.40;89.60
27559;DHT22;15002;52.028;5.670;2023-03-14T13:43:01;11.20;88.30
27559;DHT22;15002;52.028;5.670;2023-03-14T13:45:26;11.20;88.40
27559;DHT22;15002;52.028;5.670;2023-03-14T13:47:52;10.70;90.00
27559;DHT22;15002;52.028;5.670;2023-03-14T13:50:18;10.60;91.20
27559;DHT22;15002;52.028;5.670;2023-03-14T13:52:44;10.80;90.90
27559;DHT22;15002;52.028;5.670;2023-03-14T13:55:17;10.90;91.10
27559;DHT22;15002;52.028;5.670;2023-03-14T13:57:52;11.10;91.00
27559;DHT22;15002;52.028;5.670;2023-03-14T14:00:25;11.20;90.70
27559;DHT22;15002;52.028;5.670;2023-03-14T14:02:56;11.40;90.10
27559;DHT22;15002;52.028;5.670;2023-03-14T14:05:25;11.40;89.10
27559;DHT22;15002;52.028;5.670;2023-03-14T14:07:51;11.20;87.60
27559;DHT22;15002;52.028;5.670;2023-03-14T14:10:18;11.10;88.00
27559;DHT22;15002;52.028;5.670;2023-03-14T14:15:16;11.00;89.30
27559;DHT22;15002;52.028;5.670;2023-03-14T14:17:52;11.10;89.70
27559;DHT22;15002;52.028;5.670;2023-03-14T14:23:03;11.70;90.00
27559;DHT22;15002;52.028;5.670;2023-03-14T14:25:30;11.50;88.90
27559;DHT22;15002;52.028;5.670;2023-03-14T14:27:56;11.60;87.40
27559;DHT22;15002;52.028;5.670;2023-03-14T14:30:26;11.40;89.00
27559;DHT22;15002;52.028;5.670;2023-03-14T14:32:52;11.50;89.00
27559;DHT22;15002;52.028;5.670;2023-03-14T14:35:36;11.60;87.80
27559;DHT22;15002;52.028;5.670;2023-03-14T14:38:03;11.20;86.80
27559;DHT22;15002;52.028;5.670;2023-03-14T14:40:49;11.00;89.00
27559;DHT22;15002;52.028;5.670;2023-03-14T14:43:20;10.90;88.70
27559;DHT22;15002;52.028;5.670;2023-03-14T14:45:49;10.60;88.50
27559;DHT22;15002;52.028;5.670;2023-03-14T14:48:27;10.50;90.00
27559;DHT22;15002;52.028;5.670;2023-03-14T14:51:02;10.60;89.10
27559;DHT22;15002;52.028;5.670;2023-03-14T14:53:42;10.40;87.50
27559;DHT22;15002;52.028;5.670;2023-03-14T14:56:19;10.20;88.10
27559;DHT22;15002;52.028;5.670;2023-03-14T14:58:48;10.20;88.00
27559;DHT22;15002;52.028;5.670;2023-03-14T15:01:17;10.30;89.00
27559;DHT22;15002;52.028;5.670;2023-03-14T15:03:45;10.40;88.20
27559;DHT22;15002;52.028;5.670;2023-03-14T15:06:12;10.30;86.90
27559;DHT22;15002;52.028;5.670;2023-03-14T15:08:39;10.20;88.50
27559;DHT22;15002;52.028;5.670;2023-03-14T15:11:05;10.20;89.60
27559;DHT22;15002;52.028;5.670;2023-03-14T15:13:30;10.20;90.50
27559;DHT22;15002;52.028;5.670;2023-03-14T15:15:56;10.40;90.50
27559;DHT22;15002;52.028;5.670;2023-03-14T15:18:24;10.50;90.10
27559;DHT22;15002;52.028;5.670;2023-03-14T15:20:51;10.50;90.20
27559;DHT22;15002;52.028;5.670;2023-03-14T15:23:18;10.50;89.30
27559;DHT22;15002;52.028;5.670;2023-03-14T15:25:44;10.50;90.10
27559;DHT22;15002;52.028;5.670;2023-03-14T15:28:25;10.60;90.30
27559;DHT22;15002;52.028;5.670;2023-03-14T15:30:53;10.70;89.60
27559;DHT22;15002;52.028;5.670;2023-03-14T15:33:20;10.80;88.90
27559;DHT22;15002;52.028;5.670;2023-03-14T15:35:47;11.00;89.20
27559;DHT22;15002;52.028;5.670;2023-03-14T15:38:15;11.10;88.60
27559;DHT22;15002;52.028;5.670;2023-03-14T15:40:41;11.00;88.70
27559;DHT22;15002;52.028;5.670;2023-03-14T15:43:07;11.00;89.00
27559;DHT22;15002;52.028;5.670;2023-03-14T15:45:33;10.80;90.00
27559;DHT22;15002;52.028;5.670;2023-03-14T15:47:59;11.00;90.20
27559;DHT22;15002;52.028;5.670;2023-03-14T15:50:24;11.00;89.40
27559;DHT22;15002;52.028;5.670;2023-03-14T15:52:51;10.80;89.10
27559;DHT22;15002;52.028;5.670;2023-03-14T15:55:17;10.80;87.50
27559;DHT22;15002;52.028;5.670;2023-03-14T15:57:46;10.70;87.10
27559;DHT22;15002;52.028;5.670;2023-03-14T16:00:13;10.70;87.80
27559;DHT22;15002;52.028;5.670;2023-03-14T16:02:43;10.70;87.10
27559;DHT22;15002;52.028;5.670;2023-03-14T16:05:11;10.70;87.40
27559;DHT22;15002;52.028;5.670;2023-03-14T16:07:37;10.50;87.70
27559;DHT22;15002;52.028;5.670;2023-03-14T16:10:03;10.60;88.10
27559;DHT22;15002;52.028;5.670;2023-03-14T16:12:30;10.60;86.60
27559;DHT22;15002;52.028;5.670;2023-03-14T16:14:56;10.70;86.50
27559;DHT22;15002;52.028;5.670;2023-03-14T16:17:21;10.50;86.90
27559;DHT22;15002;52.028;5.670;2023-03-14T16:19:47;10.50;88.20
27559;DHT22;15002;52.028;5.670;2023-03-14T16:22:13;10.30;88.80
27559;DHT22;15002;52.028;5.670;2023-03-14T16:24:38;10.30;89.80
27559;DHT22;15002;52.028;5.670;2023-03-14T16:27:04;10.10;90.40
27559;DHT22;15002;52.028;5.670;2023-03-14T16:29:30;10.20;90.00
27559;DHT22;15002;52.028;5.670;2023-03-14T16:31:56;10.30;88.90
27559;DHT22;15002;52.028;5.670;2023-03-14T16:34:22;10.30;88.30
27559;DHT22;15002;52.028;5.670;2023-03-14T16:36:47;10.30;87.80
27559;DHT22;15002;52.028;5.670;2023-03-14T16:39:17;10.40;88.00
27559;DHT22;15002;52.028;5.670;2023-03-14T16:41:43;10.40;88.70
27559;DHT22;15002;52.028;5.670;2023-03-14T16:44:08;10.40;89.30
27559;DHT22;15002;52.028;5.670;2023-03-14T16:46:34;10.40;89.30
27559;DHT22;15002;52.028;5.670;2023-03-14T16:49:01;10.30;90.00
27559;DHT22;15002;52.028;5.670;2023-03-14T16:51:27;10.30;90.00
27559;DHT22;15002;52.028;5.670;2023-03-14T16:53:52;10.30;90.00
27559;DHT22;15002;52.028;5.670;2023-03-14T16:56:18;10.30;89.90
27559;DHT22;15002;52.028;5.670;2023-03-14T16:58:45;10.30;90.20